Time;durP1;ratioP1;P1;durP2;ratioP2;P2;SDS_P1;SDS_P2;PMS_P1;PMS_P2;Temp;Humidity;BMP_temperature;BMP_pressure;BME280_temperature;BME280_humidity;BME280_pressure;Samples;Min_cycle;Max_cycle;Signal;HPM_P1;HPM_P2
2023/04/09 00:01:30;;;;;;;25.08;18.10;;;4.10;91.30;;;;;;5074440;28;20029;-65
2023/04/09 00:03:56;;;;;;;30.00;18.75;;;4.10;91.00;;;;;;5079299;28;20111;-64
2023/04/09 00:06:21;;;;;;;25.83;19.13;;;4.10;91.40;;;;;;5084319;28;20021;-66
2023/04/09 00:08:47;;;;;;;29.98;20.92;;;4.10;91.80;;;;;;5072694;28;20043;-66
2023/04/09 00:11:12;;;;;;;21.10;16.60;;;4.10;91.70;;;;;;5075849;28;20024;-66
2023/04/09 00:13:38;;;;;;;22.52;16.77;;;4.20;91.70;;;;;;5074875;28;20794;-66
2023/04/09 00:16:04;;;;;;;25.30;17.45;;;4.10;91.40;;;;;;5074631;28;20534;-67
2023/04/09 00:18:29;;;;;;;20.20;15.23;;;4.10;91.40;;;;;;5076938;28;20506;-66
2023/04/09 00:20:55;;;;;;;19.33;14.45;;;4.10;90.70;;;;;;5084796;28;20415;-66
2023/04/09 00:23:20;;;;;;;20.42;14.68;;;4.10;91.10;;;;;;5089401;28;20036;-66
2023/04/09 00:25:46;;;;;;;19.58;13.82;;;4.10;90.50;;;;;;5094909;28;20024;-66
2023/04/09 00:28:11;;;;;;;22.23;15.48;;;4.10;90.30;;;;;;5079984;28;20370;-66
2023/04/09 00:30:39;;;;;;;22.42;17.48;;;4.10;89.90;;;;;;5090455;28;20428;-66
2023/04/09 00:33:05;;;;;;;21.48;15.98;;;4.10;90.50;;;;;;5076110;28;20396;-65
2023/04/09 00:35:30;;;;;;;21.65;16.10;;;4.10;90.40;;;;;;5091455;28;20055;-67
2023/04/09 00:37:56;;;;;;;24.98;15.80;;;4.10;90.60;;;;;;5094407;28;20035;-65
2023/04/09 00:40:21;;;;;;;24.63;17.30;;;4.10;90.30;;;;;;5086857;28;20028;-66
2023/04/09 00:42:47;;;;;;;20.63;14.73;;;4.10;90.30;;;;;;5086618;28;20041;-66
2023/04/09 00:45:12;;;;;;;24.38;17.45;;;4.10;90.30;;;;;;5096771;28;20070;-66
2023/04/09 00:47:38;;;;;;;23.42;17.48;;;4.10;90.40;;;;;;5083283;28;20027;-67
2023/04/09 00:50:04;;;;;;;23.08;16.73;;;4.10;90.40;;;;;;5079771;28;20082;-66
2023/04/09 00:52:31;;;;;;;23.15;17.13;;;4.10;90.20;;;;;;5083204;28;20025;-66
2023/04/09 00:54:59;;;;;;;25.90;17.92;;;4.10;90.10;;;;;;5085268;28;20046;-66
2023/04/09 00:57:25;;;;;;;23.33;17.02;;;4.10;89.90;;;;;;5086936;28;20488;-66
2023/04/09 00:59:50;;;;;;;26.35;18.63;;;4.10;89.90;;;;;;5079363;28;20132;-67
2023/04/09 01:02:16;;;;;;;25.02;19.35;;;4.10;89.70;;;;;;5087357;28;20114;-67
2023/04/09 01:04:42;;;;;;;28.27;20.45;;;4.10;89.50;;;;;;5086434;28;20035;-66
2023/04/09 01:07:14;;;;;;;24.27;18.80;;;4.10;89.70;;;;;;5089637;28;20028;-66
2023/04/09 01:09:46;;;;;;;28.70;20.05;;;4.20;89.50;;;;;;5083634;28;20024;-66
2023/04/09 01:12:24;;;;;;;26.05;19.83;;;4.20;90.30;;;;;;5079568;28;20075;-66
2023/04/09 01:15:02;;;;;;;27.83;19.63;;;4.20;90.50;;;;;;5078016;28;20375;-66
2023/04/09 01:17:47;;;;;;;27.65;20.95;;;4.30;90.70;;;;;;5086327;28;20028;-65
2023/04/09 01:20:35;;;;;;;34.85;23.38;;;4.40;91.90;;;;;;5098901;28;20020;-65
2023/04/09 01:23:15;;;;;;;29.38;21.52;;;4.40;92.00;;;;;;5078385;28;20123;-65
2023/04/09 01:25:49;;;;;;;28.55;20.98;;;4.40;92.00;;;;;;5092520;28;20024;-65
2023/04/09 01:28:20;;;;;;;32.40;23.55;;;4.30;91.80;;;;;;5088076;28;20035;-65
2023/04/09 01:30:50;;;;;;;28.55;21.58;;;4.40;92.20;;;;;;5084601;28;20047;-65
2023/04/09 01:33:18;;;;;;;35.10;25.13;;;4.50;92.30;;;;;;5079817;28;20020;-65
2023/04/09 01:35:46;;;;;;;27.33;20.27;;;4.50;93.20;;;;;;5094005;28;20028;-65
2023/04/09 01:38:13;;;;;;;24.20;18.48;;;4.50;93.00;;;;;;5081374;28;20020;-65
2023/04/09 01:40:53;;;;;;;28.08;20.17;;;4.50;92.70;;;;;;5086797;28;20026;-65
2023/04/09 01:43:19;;;;;;;31.98;23.25;;;4.50;92.20;;;;;;5081062;28;20432;-65
2023/04/09 01:45:46;;;;;;;32.33;24.67;;;4.50;92.70;;;;;;5077235;28;20032;-66
2023/04/09 01:48:16;;;;;;;31.98;24.08;;;4.50;92.70;;;;;;5085352;28;20119;-66
2023/04/09 01:50:42;;;;;;;33.85;24.15;;;4.60;92.30;;;;;;5093454;28;20024;-65
2023/04/09 01:53:08;;;;;;;36.20;26.02;;;4.80;93.70;;;;;;5089987;28;20043;-66
2023/04/09 01:55:34;;;;;;;33.33;25.15;;;4.70;93.80;;;;;;5077941;28;20028;-65
2023/04/09 01:57:59;;;;;;;37.38;25.83;;;4.70;93.50;;;;;;5088492;28;20458;-65
2023/04/09 02:00:31;;;;;;;35.05;24.08;;;4.60;93.60;;;;;;5081264;28;20032;-65
2023/04/09 02:02:59;;;;;;;37.78;26.45;;;4.60;92.50;;;;;;5085537;28;20035;-65
2023/04/09 02:05:34;;;;;;;34.85;24.90;;;4.60;92.70;;;;;;5083779;28;20016;-65
2023/04/09 02:08:02;;;;;;;37.33;26.85;;;4.50;92.10;;;;;;5083036;28;20024;-65
2023/04/09 02:10:30;;;;;;;35.15;23.25;;;4.50;92.40;;;;;;5075999;28;20021;-65
2023/04/09 02:13:00;;;;;;;35.20;25.35;;;4.50;91.60;;;;;;5080796;28;20024;-65
2023/04/09 02:15:27;;;;;;;32.65;23.45;;;4.50;92.30;;;;;;5075997;28;20031;-65
2023/04/09 02:17:53;;;;;;;30.00;21.52;;;4.50;92.00;;;;;;5084485;28;20037;-65
2023/04/09 02:20:18;;;;;;;34.83;23.90;;;4.50;91.40;;;;;;5086017;28;20328;-65
2023/04/09 02:22:45;;;;;;;38.40;24.33;;;4.50;92.10;;;;;;5079974;28;20028;-65
2023/04/09 02:25:11;;;;;;;39.10;26.95;;;4.50;91.80;;;;;;5078817;28;20021;-65
2023/04/09 02:27:37;;;;;;;31.05;22.20;;;4.50;92.50;;;;;;5087877;28;20050;-65
2023/04/09 02:30:03;;;;;;;34.22;24.83;;;4.50;92.30;;;;;;5083375;28;20029;-65
2023/04/09 02:32:28;;;;;;;32.95;23.70;;;4.40;91.40;;;;;;5089092;28;20024;-65
2023/04/09 02:34:54;;;;;;;34.40;24.85;;;4.40;91.20;;;;;;5079396;28;20031;-65
2023/04/09 02:37:19;;;;;;;34.83;24.30;;;4.40;91.60;;;;;;5085166;28;20032;-65
2023/04/09 02:39:45;;;;;;;35.70;25.98;;;4.40;91.30;;;;;;5080063;28;20036;-65
2023/04/09 02:42:10;;;;;;;41.55;28.95;;;4.50;91.70;;;;;;5096186;28;20032;-65
2023/04/09 02:44:36;;;;;;;39.10;27.48;;;4.50;92.50;;;;;;5090292;28;20028;-65
2023/04/09 02:47:02;;;;;;;36.00;24.67;;;4.50;92.70;;;;;;5092191;28;20047;-64
2023/04/09 02:49:27;;;;;;;34.35;24.83;;;4.40;92.20;;;;;;5084469;28;20025;-66
2023/04/09 02:51:53;;;;;;;35.00;25.95;;;4.30;92.00;;;;;;5086586;28;20316;-65
2023/04/09 02:54:19;;;;;;;33.67;24.55;;;4.30;91.50;;;;;;5076068;28;20421;-65
2023/04/09 02:56:44;;;;;;;36.08;25.40;;;4.40;91.20;;;;;;5075437;28;20051;-65
2023/04/09 02:59:10;;;;;;;41.58;29.45;;;4.40;92.40;;;;;;5074224;28;20051;-65
2023/04/09 03:01:35;;;;;;;41.97;29.20;;;4.40;92.20;;;;;;5079143;28;20028;-65
2023/04/09 03:04:01;;;;;;;42.28;30.05;;;4.50;92.60;;;;;;5081222;28;20093;-65
2023/04/09 03:06:27;;;;;;;43.80;30.08;;;4.50;93.40;;;;;;5093302;28;20408;-65
2023/04/09 03:08:53;;;;;;;41.92;30.13;;;4.50;93.50;;;;;;5085969;28;20091;-65
2023/04/09 03:11:18;;;;;;;39.22;28.85;;;4.60;94.40;;;;;;5093269;28;20020;-65
2023/04/09 03:13:44;;;;;;;40.17;29.02;;;4.60;94.50;;;;;;5082901;28;20424;-65
2023/04/09 03:16:09;;;;;;;43.58;30.10;;;4.60;94.50;;;;;;5092165;28;20043;-65
2023/04/09 03:18:35;;;;;;;42.00;29.85;;;4.60;94.60;;;;;;5090120;28;20320;-64
2023/04/09 03:21:06;;;;;;;44.08;31.85;;;4.60;94.40;;;;;;5080329;28;20428;-64
2023/04/09 03:23:33;;;;;;;44.17;31.73;;;4.60;94.40;;;;;;5087366;28;20024;-65
2023/04/09 03:26:04;;;;;;;43.55;30.13;;;4.60;94.20;;;;;;5087772;28;20512;-65
2023/04/09 03:28:29;;;;;;;42.65;30.52;;;4.50;93.40;;;;;;5086477;28;20027;-65
2023/04/09 03:30:55;;;;;;;41.80;29.38;;;4.50;93.30;;;;;;5094084;28;20020;-65
2023/04/09 03:33:21;;;;;;;41.35;29.95;;;4.50;92.90;;;;;;5078362;28;20101;-65
2023/04/09 03:35:46;;;;;;;40.78;29.85;;;4.50;92.60;;;;;;5076072;28;20033;-65
2023/04/09 03:38:12;;;;;;;41.97;29.60;;;4.60;93.70;;;;;;5082503;28;20025;-65
2023/04/09 03:40:37;;;;;;;40.85;29.80;;;4.60;94.50;;;;;;5075663;28;20329;-65
2023/04/09 03:43:03;;;;;;;44.20;30.13;;;4.60;94.80;;;;;;5087127;28;20099;-64
2023/04/09 03:45:28;;;;;;;40.08;29.30;;;4.60;94.90;;;;;;5089061;28;20029;-65
2023/04/09 03:47:54;;;;;;;42.80;29.80;;;4.50;94.00;;;;;;5090569;28;20077;-65
2023/04/09 03:50:20;;;;;;;40.55;29.25;;;4.50;93.60;;;;;;5088318;28;20119;-65
2023/04/09 03:52:45;;;;;;;39.45;28.48;;;4.40;93.40;;;;;;5081395;28;20039;-65
2023/04/09 03:55:11;;;;;;;46.97;32.00;;;4.40;93.00;;;;;;5081098;28;20031;-65
2023/04/09 03:57:37;;;;;;;44.08;30.83;;;4.30;93.00;;;;;;5075202;28;20033;-65
2023/04/09 04:00:03;;;;;;;40.80;28.83;;;4.30;92.40;;;;;;5073758;28;20033;-65
2023/04/09 04:02:32;;;;;;;44.53;30.67;;;4.30;92.30;;;;;;5079520;28;20032;-65
2023/04/09 04:05:00;;;;;;;39.13;28.92;;;4.30;92.10;;;;;;5078429;28;20025;-64
2023/04/09 04:07:26;;;;;;;39.40;28.70;;;4.30;92.20;;;;;;5091938;28;20024;-65
2023/04/09 04:09:51;;;;;;;42.50;29.25;;;4.30;92.20;;;;;;5081353;28;20032;-65
2023/04/09 04:12:17;;;;;;;40.70;28.80;;;4.30;92.60;;;;;;5090224;28;20350;-65
2023/04/09 04:14:42;;;;;;;44.63;30.15;;;4.40;92.60;;;;;;5083692;28;20035;-65
2023/04/09 04:17:09;;;;;;;41.13;28.38;;;4.40;92.70;;;;;;5086290;28;20115;-65
2023/04/09 04:19:35;;;;;;;43.13;29.30;;;4.50;93.60;;;;;;5087885;28;20092;-65
2023/04/09 04:22:00;;;;;;;38.97;26.73;;;4.50;93.70;;;;;;5088412;28;20031;-65
2023/04/09 04:24:26;;;;;;;41.38;29.02;;;4.50;93.20;;;;;;5089279;28;20103;-65
2023/04/09 04:26:51;;;;;;;41.10;28.77;;;4.40;93.50;;;;;;5081367;28;20058;-64
2023/04/09 04:29:17;;;;;;;40.25;28.83;;;4.40;93.00;;;;;;5081492;28;20037;-64
2023/04/09 04:31:43;;;;;;;42.78;30.55;;;4.40;92.90;;;;;;5089920;28;20027;-64
2023/04/09 04:34:11;;;;;;;40.50;29.20;;;4.40;93.10;;;;;;5086157;28;20078;-67
2023/04/09 04:36:36;;;;;;;38.38;27.60;;;4.40;92.90;;;;;;5090045;28;20077;-66
2023/04/09 04:39:02;;;;;;;40.35;28.48;;;4.40;92.40;;;;;;5087877;28;20024;-66
2023/04/09 04:41:28;;;;;;;43.08;30.63;;;4.40;92.30;;;;;;5097604;28;20024;-66
2023/04/09 04:43:57;;;;;;;37.22;26.98;;;4.40;92.40;;;;;;5077706;28;20033;-65
2023/04/09 04:46:22;;;;;;;42.88;30.08;;;4.40;92.00;;;;;;5092654;28;20021;-66
2023/04/09 04:48:48;;;;;;;42.88;30.17;;;4.30;92.20;;;;;;5077245;28;20020;-65
2023/04/09 04:51:13;;;;;;;42.28;29.58;;;4.30;92.00;;;;;;5085961;28;20429;-65
2023/04/09 04:53:39;;;;;;;41.08;29.13;;;4.30;91.60;;;;;;5081929;28;20479;-65
2023/04/09 04:56:05;;;;;;;40.72;29.35;;;4.30;91.30;;;;;;5089245;28;20054;-65
2023/04/09 04:58:30;;;;;;;45.35;30.77;;;4.30;91.50;;;;;;5082481;28;20493;-65
2023/04/09 05:00:56;;;;;;;43.00;29.92;;;4.30;91.40;;;;;;5084274;28;20116;-65
2023/04/09 05:03:21;;;;;;;44.92;30.50;;;4.30;91.30;;;;;;5093234;28;20420;-65
2023/04/09 05:05:47;;;;;;;38.28;27.65;;;4.30;91.80;;;;;;5078351;28;20314;-65
2023/04/09 05:08:12;;;;;;;41.65;28.55;;;4.30;91.80;;;;;;5094066;28;20031;-65
2023/04/09 05:10:42;;;;;;;38.35;27.77;;;4.40;91.60;;;;;;5079970;28;20035;-62
2023/04/09 05:13:08;;;;;;;39.92;27.45;;;4.50;92.80;;;;;;5085348;28;20031;-64
2023/04/09 05:15:37;;;;;;;38.85;28.92;;;4.50;92.90;;;;;;5080459;28;20021;-65
2023/04/09 05:18:02;;;;;;;41.67;29.38;;;4.60;93.30;;;;;;5082221;28;20028;-65
2023/04/09 05:20:28;;;;;;;37.97;27.05;;;4.60;93.30;;;;;;5087372;28;20103;-66
2023/04/09 05:22:53;;;;;;;39.90;28.25;;;4.60;93.00;;;;;;5087057;28;20031;-65
2023/04/09 05:25:19;;;;;;;37.03;26.08;;;4.60;92.90;;;;;;5078357;28;20024;-64
2023/04/09 05:27:45;;;;;;;37.55;26.45;;;4.60;92.50;;;;;;5097688;28;20016;-65
2023/04/09 05:30:10;;;;;;;37.47;27.38;;;4.80;92.60;;;;;;5089300;28;20031;-65
2023/04/09 05:32:39;;;;;;;42.72;29.23;;;4.80;93.20;;;;;;5099492;28;20331;-65
2023/04/09 05:35:05;;;;;;;43.47;28.38;;;4.80;93.40;;;;;;5079234;28;20031;-65
2023/04/09 05:37:30;;;;;;;46.17;32.42;;;4.90;93.60;;;;;;5081185;28;20111;-65
2023/04/09 05:39:56;;;;;;;35.95;26.17;;;4.90;94.40;;;;;;5080220;28;20028;-65
2023/04/09 05:42:24;;;;;;;37.53;27.10;;;5.00;93.80;;;;;;5077435;28;20032;-65
2023/04/09 05:44:50;;;;;;;35.53;25.77;;;5.10;95.20;;;;;;5075974;28;20062;-65
2023/04/09 05:47:16;;;;;;;36.90;26.48;;;5.20;96.90;;;;;;5076781;28;20029;-64
2023/04/09 05:49:42;;;;;;;33.55;24.63;;;5.30;97.90;;;;;;5077726;28;20025;-65
2023/04/09 05:52:07;;;;;;;35.63;25.10;;;5.30;97.80;;;;;;5084032;28;20031;-63
2023/04/09 05:54:33;;;;;;;34.47;24.38;;;5.40;98.00;;;;;;5086844;28;20042;-65
2023/04/09 05:56:59;;;;;;;32.55;24.70;;;5.50;98.00;;;;;;5096375;28;20016;-64
2023/04/09 05:59:24;;;;;;;33.65;24.98;;;5.60;98.00;;;;;;5089542;28;20050;-64
2023/04/09 06:01:50;;;;;;;33.67;24.65;;;5.60;98.00;;;;;;5095740;28;20020;-64
2023/04/09 06:04:15;;;;;;;34.20;24.58;;;5.60;98.00;;;;;;5083468;28;20028;-64
2023/04/09 06:06:43;;;;;;;34.00;24.65;;;5.70;98.00;;;;;;5102376;28;20434;-65
2023/04/09 06:09:09;;;;;;;29.15;22.33;;;5.70;98.00;;;;;;5097721;28;20089;-65
2023/04/09 06:11:34;;;;;;;31.77;23.25;;;5.80;98.00;;;;;;5102239;28;20024;-64
2023/04/09 06:14:00;;;;;;;32.40;23.88;;;5.80;98.00;;;;;;5095491;28;20032;-64
2023/04/09 06:16:26;;;;;;;34.42;24.67;;;5.90;98.00;;;;;;5077444;28;20421;-65
2023/04/09 06:18:53;;;;;;;34.38;24.85;;;5.90;98.00;;;;;;5087910;28;20056;-65
2023/04/09 06:21:19;;;;;;;31.67;23.40;;;5.80;98.00;;;;;;5083558;28;20027;-65
2023/04/09 06:23:45;;;;;;;32.17;23.10;;;5.80;98.00;;;;;;5088259;28;20024;-65
2023/04/09 06:26:10;;;;;;;34.35;24.38;;;6.00;98.00;;;;;;5082039;28;20031;-65
2023/04/09 06:28:36;;;;;;;30.23;22.58;;;6.00;98.00;;;;;;5093839;28;20058;-65
2023/04/09 06:31:01;;;;;;;30.10;21.67;;;6.00;98.00;;;;;;5108237;28;20443;-65
2023/04/09 06:33:27;;;;;;;30.30;22.08;;;6.10;98.00;;;;;;5085329;28;20554;-64
2023/04/09 06:35:59;;;;;;;30.35;22.67;;;6.20;98.00;;;;;;5084493;28;20492;-64
2023/04/09 06:38:27;;;;;;;27.42;21.30;;;6.20;98.00;;;;;;5090815;28;20024;-65
2023/04/09 06:40:56;;;;;;;31.70;22.90;;;6.30;98.00;;;;;;5081602;28;20096;-64
2023/04/09 06:43:30;;;;;;;31.38;22.75;;;6.20;98.00;;;;;;5080751;28;20021;-64
2023/04/09 06:45:56;;;;;;;28.90;22.25;;;6.30;98.00;;;;;;5081960;28;20308;-64
2023/04/09 06:48:35;;;;;;;29.90;21.27;;;6.40;98.00;;;;;;5087577;28;20028;-64
2023/04/09 06:51:01;;;;;;;31.88;23.42;;;6.30;98.00;;;;;;5090327;28;20020;-65
2023/04/09 06:53:28;;;;;;;28.35;22.42;;;6.40;98.00;;;;;;5089584;28;20451;-65
2023/04/09 06:55:54;;;;;;;32.35;23.00;;;6.40;98.00;;;;;;5083014;28;20024;-65
2023/04/09 06:58:20;;;;;;;29.40;22.33;;;6.50;98.00;;;;;;5089403;28;20047;-65
2023/04/09 07:00:45;;;;;;;34.75;24.35;;;6.60;97.70;;;;;;5083755;28;20043;-65
2023/04/09 07:03:11;;;;;;;30.33;23.05;;;6.60;97.50;;;;;;5086261;28;20029;-65
2023/04/09 07:05:36;;;;;;;31.55;23.23;;;6.70;97.80;;;;;;5077680;28;20416;-65
2023/04/09 07:08:03;;;;;;;30.95;22.85;;;6.80;97.50;;;;;;5081432;28;20440;-65
2023/04/09 07:10:33;;;;;;;31.48;22.38;;;6.70;97.50;;;;;;5092135;28;20020;-64
2023/04/09 07:13:05;;;;;;;28.65;21.73;;;6.50;97.40;;;;;;5092562;28;20028;-65
2023/04/09 07:15:31;;;;;;;30.95;21.05;;;6.50;97.80;;;;;;5089879;28;20032;-64
2023/04/09 07:17:56;;;;;;;29.80;21.45;;;6.50;97.40;;;;;;5088373;28;20331;-65
2023/04/09 07:20:22;;;;;;;26.35;20.13;;;6.60;97.30;;;;;;5088366;28;20035;-65
2023/04/09 07:22:48;;;;;;;31.02;20.27;;;6.80;97.60;;;;;;5088646;28;20029;-65
2023/04/09 07:25:14;;;;;;;27.95;20.25;;;7.00;96.50;;;;;;5084448;28;20099;-65
2023/04/09 07:27:41;;;;;;;27.38;21.00;;;7.20;96.30;;;;;;5085574;28;20113;-65
2023/04/09 07:30:07;;;;;;;21.25;16.15;;;7.40;95.50;;;;;;5082753;28;20074;-65
2023/04/09 07:32:33;;;;;;;21.55;16.25;;;7.50;93.40;;;;;;5096063;28;20416;-65
2023/04/09 07:34:58;;;;;;;21.20;15.57;;;7.70;92.30;;;;;;5086373;28;20036;-65
2023/04/09 07:37:24;;;;;;;20.25;14.15;;;7.80;90.90;;;;;;5088561;28;20077;-65
2023/04/09 07:39:51;;;;;;;16.70;12.88;;;7.90;91.20;;;;;;5084461;28;20471;-65
2023/04/09 07:42:16;;;;;;;15.88;11.45;;;8.10;88.10;;;;;;5089944;28;20029;-65
2023/04/09 07:44:42;;;;;;;14.50;10.43;;;8.10;86.90;;;;;;5081577;28;20033;-65
2023/04/09 07:47:09;;;;;;;13.15;9.85;;;7.90;86.10;;;;;;5088855;28;20024;-65
2023/04/09 07:49:36;;;;;;;13.75;10.25;;;7.90;85.70;;;;;;5089589;28;20073;-65
2023/04/09 07:52:03;;;;;;;15.50;10.82;;;8.20;84.60;;;;;;5090250;28;20420;-65
2023/04/09 07:54:30;;;;;;;15.25;11.65;;;8.80;85.00;;;;;;5089693;28;20123;-65
2023/04/09 07:56:56;;;;;;;14.65;11.10;;;9.60;83.30;;;;;;5087620;28;20340;-65
2023/04/09 07:59:22;;;;;;;13.30;10.02;;;10.20;80.70;;;;;;5086246;28;20036;-66
2023/04/09 08:01:48;;;;;;;13.82;10.10;;;10.30;78.10;;;;;;5085688;28;20093;-65
2023/04/09 08:04:13;;;;;;;12.73;9.23;;;10.20;79.20;;;;;;5087938;28;20121;-65
2023/04/09 08:06:39;;;;;;;13.38;9.90;;;10.60;78.70;;;;;;5087395;28;20032;-64
2023/04/09 08:09:05;;;;;;;12.57;9.57;;;10.90;77.70;;;;;;5075196;28;20021;-64
2023/04/09 08:11:33;;;;;;;15.50;10.77;;;10.90;77.30;;;;;;5077223;28;20468;-65
2023/04/09 08:14:03;;;;;;;13.98;10.50;;;10.80;77.30;;;;;;5078834;28;20040;-67
2023/04/09 08:16:29;;;;;;;12.70;9.38;;;11.30;75.70;;;;;;5074843;28;20048;-66
2023/04/09 08:18:55;;;;;;;11.55;8.80;;;11.90;74.60;;;;;;5089144;28;21667;-66
2023/04/09 08:21:22;;;;;;;12.75;9.15;;;11.30;73.60;;;;;;5075646;28;20099;-65
2023/04/09 08:23:48;;;;;;;10.40;7.88;;;10.80;74.80;;;;;;5075176;28;20433;-66
2023/04/09 08:26:14;;;;;;;11.80;8.55;;;10.60;74.10;;;;;;5080166;28;20072;-66
2023/04/09 08:28:40;;;;;;;11.95;8.63;;;10.30;75.60;;;;;;5075153;28;20025;-66
2023/04/09 08:31:08;;;;;;;14.35;10.32;;;10.00;75.30;;;;;;5088965;28;20035;-65
2023/04/09 08:33:33;;;;;;;13.85;10.77;;;9.70;77.30;;;;;;5092830;28;20420;-65
2023/04/09 08:35:59;;;;;;;14.07;10.45;;;9.60;78.70;;;;;;5079978;28;20043;-65
2023/04/09 08:38:24;;;;;;;13.85;10.82;;;9.60;79.80;;;;;;5089963;28;20065;-65
2023/04/09 08:40:53;;;;;;;15.88;11.48;;;9.70;79.70;;;;;;5095387;28;20107;-65
2023/04/09 08:43:21;;;;;;;16.30;12.00;;;9.90;80.20;;;;;;5086944;28;20028;-65
2023/04/09 08:45:47;;;;;;;15.43;11.55;;;10.10;79.60;;;;;;5082354;28;20013;-65
2023/04/09 08:48:13;;;;;;;16.73;12.15;;;10.00;79.50;;;;;;5079330;28;20028;-65
2023/04/09 08:50:39;;;;;;;13.35;10.80;;;10.20;78.60;;;;;;5087189;28;20108;-65
2023/04/09 08:53:06;;;;;;;15.35;11.27;;;10.20;78.90;;;;;;5088491;28;20480;-65
2023/04/09 08:55:39;;;;;;;14.65;11.15;;;10.10;77.80;;;;;;5094574;28;20103;-65
2023/04/09 08:58:09;;;;;;;16.42;12.70;;;9.90;78.20;;;;;;5095168;28;20044;-65
2023/04/09 09:00:35;;;;;;;16.40;12.43;;;9.90;79.50;;;;;;5077053;28;20031;-65
2023/04/09 09:03:03;;;;;;;15.02;12.07;;;10.10;79.20;;;;;;5097145;28;20481;-65
2023/04/09 09:05:35;;;;;;;17.63;13.52;;;11.30;79.50;;;;;;5088087;28;20090;-65
2023/04/09 09:08:01;;;;;;;17.38;14.00;;;12.70;74.40;;;;;;5087008;28;20067;-65
2023/04/09 09:10:37;;;;;;;15.95;12.38;;;12.30;73.50;;;;;;5094725;28;20025;-65
2023/04/09 09:13:22;;;;;;;15.05;12.07;;;11.50;74.80;;;;;;5082287;28;20024;-65
2023/04/09 09:16:10;;;;;;;15.05;12.25;;;11.80;76.50;;;;;;5084904;28;20036;-65
2023/04/09 09:18:39;;;;;;;14.68;11.38;;;12.00;74.80;;;;;;5078411;28;20059;-64
2023/04/09 09:21:11;;;;;;;13.77;11.35;;;11.80;74.50;;;;;;5079911;28;20355;-64
2023/04/09 09:23:37;;;;;;;13.18;10.98;;;11.50;75.00;;;;;;5088575;28;20032;-64
2023/04/09 09:26:20;;;;;;;13.65;11.13;;;11.20;75.70;;;;;;5091069;28;20088;-64
2023/04/09 09:28:47;;;;;;;14.20;11.15;;;10.90;75.90;;;;;;5092324;28;20031;-64
2023/04/09 09:31:14;;;;;;;15.18;11.32;;;10.60;76.80;;;;;;5079864;28;20085;-64
2023/04/09 09:33:40;;;;;;;14.98;11.80;;;10.30;77.50;;;;;;5091799;28;20455;-64
2023/04/09 09:36:08;;;;;;;14.13;11.25;;;9.90;77.80;;;;;;5091207;28;20024;-64
2023/04/09 09:38:49;;;;;;;13.02;10.43;;;9.60;79.30;;;;;;5094957;28;20529;-64
2023/04/09 09:41:18;;;;;;;13.40;10.70;;;9.50;80.10;;;;;;5088285;28;20052;-64
2023/04/09 09:43:45;;;;;;;13.35;10.18;;;9.30;80.30;;;;;;5084752;28;20103;-64
2023/04/09 09:46:11;;;;;;;13.10;10.13;;;9.20;80.60;;;;;;5083925;28;20035;-64
2023/04/09 09:48:37;;;;;;;12.52;9.85;;;9.50;80.50;;;;;;5091630;28;20030;-64
2023/04/09 09:51:10;;;;;;;13.38;10.25;;;9.70;80.00;;;;;;5095609;28;20017;-64
2023/04/09 09:53:37;;;;;;;13.55;9.93;;;9.80;79.00;;;;;;5086948;28;20428;-64
2023/04/09 09:56:10;;;;;;;13.10;9.48;;;9.80;79.20;;;;;;5089512;28;20086;-64
2023/04/09 09:58:42;;;;;;;11.93;9.38;;;9.90;79.50;;;;;;5086411;28;20040;-64
2023/04/09 10:01:12;;;;;;;11.77;9.43;;;10.00;78.70;;;;;;5079374;28;20025;-64
2023/04/09 10:03:41;;;;;;;13.07;10.57;;;9.80;78.90;;;;;;5084304;28;20478;-64
2023/04/09 10:06:08;;;;;;;16.85;11.80;;;9.60;80.10;;;;;;5075996;28;20328;-64
2023/04/09 10:08:37;;;;;;;17.23;13.93;;;9.20;81.10;;;;;;5089144;28;20046;-64
2023/04/09 10:11:05;;;;;;;19.48;15.05;;;8.80;83.50;;;;;;5090777;28;20020;-64
2023/04/09 10:13:40;;;;;;;19.52;14.95;;;8.40;85.70;;;;;;5088220;28;20028;-64
2023/04/09 10:16:07;;;;;;;19.20;14.77;;;8.20;86.20;;;;;;5084812;28;20381;-64
2023/04/09 10:18:33;;;;;;;21.60;15.85;;;8.20;87.10;;;;;;5090263;28;20028;-64
2023/04/09 10:21:14;;;;;;;20.63;14.73;;;8.10;86.50;;;;;;5090647;28;20374;-65
2023/04/09 10:23:43;;;;;;;21.42;15.90;;;8.00;87.70;;;;;;5089662;28;20028;-64
2023/04/09 10:26:09;;;;;;;21.50;16.05;;;8.10;87.10;;;;;;5092886;28;20028;-64
2023/04/09 10:28:38;;;;;;;20.08;14.68;;;8.20;87.60;;;;;;5084428;28;20298;-64
2023/04/09 10:31:06;;;;;;;17.75;13.57;;;8.50;86.30;;;;;;5093204;28;20071;-64
2023/04/09 10:33:32;;;;;;;19.10;13.85;;;8.90;85.40;;;;;;5098216;28;20020;-65
2023/04/09 10:36:05;;;;;;;15.93;12.75;;;9.40;83.90;;;;;;5090082;28;20477;-63
2023/04/09 10:38:51;;;;;;;16.08;12.55;;;10.70;83.90;;;;;;5098879;28;20024;-63
2023/04/09 10:41:44;;;;;;;15.40;12.10;;;13.30;75.40;;;;;;5092477;28;20106;-63
2023/04/09 10:44:20;;;;;;;14.07;10.95;;;14.80;70.20;;;;;;5085650;28;20040;-65
2023/04/09 10:46:46;;;;;;;12.85;10.25;;;15.10;68.90;;;;;;5080008;28;20024;-64
2023/04/09 10:49:21;;;;;;;14.13;11.60;;;14.40;68.30;;;;;;5081546;28;20127;-65
2023/04/09 10:52:10;;;;;;;14.10;11.13;;;13.50;69.90;;;;;;5082672;28;20479;-65
2023/04/09 10:54:38;;;;;;;14.30;11.50;;;12.70;71.50;;;;;;5083937;28;20058;-66
2023/04/09 10:57:06;;;;;;;13.23;10.60;;;12.10;73.10;;;;;;5082250;28;20024;-64
2023/04/09 10:59:40;;;;;;;12.68;9.68;;;11.90;74.10;;;;;;5081553;28;20594;-64
2023/04/09 11:02:29;;;;;;;11.50;9.20;;;11.70;72.10;;;;;;5083717;28;20043;-65
2023/04/09 11:05:26;;;;;;;12.43;9.50;;;11.50;73.20;;;;;;5081759;28;20040;-65
2023/04/09 11:08:07;;;;;;;12.57;8.98;;;11.40;73.10;;;;;;5077067;28;20415;-68
2023/04/09 11:10:36;;;;;;;12.05;9.23;;;11.50;73.20;;;;;;5079319;28;20071;-65
2023/04/09 11:13:03;;;;;;;12.43;9.32;;;11.40;72.50;;;;;;5076538;28;20043;-64
2023/04/09 11:15:31;;;;;;;13.10;10.05;;;11.60;73.20;;;;;;5086425;28;20078;-65
2023/04/09 11:18:01;;;;;;;12.90;10.25;;;11.50;71.80;;;;;;5075195;28;20025;-65
2023/04/09 11:20:26;;;;;;;11.95;8.90;;;11.50;71.60;;;;;;5092478;28;20107;-65
2023/04/09 11:22:53;;;;;;;10.93;7.85;;;11.70;72.20;;;;;;5072232;28;20115;-65
2023/04/09 11:25:21;;;;;;;12.60;8.48;;;12.40;70.20;;;;;;5074919;28;20033;-64
2023/04/09 11:27:47;;;;;;;11.45;8.27;;;13.60;68.30;;;;;;5083581;28;20028;-66
2023/04/09 11:30:13;;;;;;;9.68;7.82;;;14.60;67.20;;;;;;5077211;28;20358;-66
2023/04/09 11:32:39;;;;;;;10.65;7.93;;;14.40;63.80;;;;;;5072584;28;20028;-65
2023/04/09 11:35:16;;;;;;;10.27;7.60;;;13.90;64.80;;;;;;5077169;28;20456;-66
2023/04/09 11:37:43;;;;;;;9.32;7.05;;;14.10;67.10;;;;;;5086088;28;20044;-64
2023/04/09 11:40:23;;;;;;;10.38;7.63;;;14.20;65.70;;;;;;5077674;28;20047;-65
2023/04/09 11:42:49;;;;;;;11.13;7.65;;;13.70;65.30;;;;;;5075504;28;20028;-65
2023/04/09 11:45:16;;;;;;;11.55;8.25;;;13.80;65.80;;;;;;5081707;28;20028;-65
2023/04/09 11:47:43;;;;;;;11.20;8.13;;;13.80;65.00;;;;;;5088064;28;20089;-65
2023/04/09 11:50:10;;;;;;;9.35;7.30;;;13.40;67.00;;;;;;5076296;28;20032;-64
2023/04/09 11:52:37;;;;;;;10.65;8.43;;;13.70;65.80;;;;;;5083296;28;20047;-64
2023/04/09 11:55:03;;;;;;;10.30;7.15;;;13.80;65.40;;;;;;5072875;28;20056;-65
2023/04/09 11:57:46;;;;;;;11.50;8.43;;;13.60;64.80;;;;;;5077619;28;20029;-64
2023/04/09 12:00:15;;;;;;;10.20;7.57;;;13.20;65.10;;;;;;5076729;28;20085;-64
2023/04/09 12:02:45;;;;;;;9.35;7.05;;;14.20;67.20;;;;;;5081315;28;20447;-65
2023/04/09 12:05:19;;;;;;;9.55;7.03;;;15.20;64.80;;;;;;5076521;28;20082;-65
2023/04/09 12:07:44;;;;;;;;;;;15.10;66.10;;;;;;5080394;28;20024;-65
2023/04/09 12:10:10;;;;;;;9.32;7.18;;;15.50;62.40;;;;;;5081361;28;19915;-66
2023/04/09 12:12:46;;;;;;;10.32;7.93;;;15.20;63.40;;;;;;5085988;28;20024;-65
2023/04/09 12:15:21;;;;;;;10.90;7.95;;;13.90;63.90;;;;;;5089986;28;20040;-65
2023/04/09 12:17:48;;;;;;;11.05;8.35;;;13.40;66.70;;;;;;5073019;28;20051;-65
2023/04/09 12:20:38;;;;;;;10.07;7.07;;;13.60;69.60;;;;;;5076639;28;20124;-66
2023/04/09 12:23:04;;;;;;;10.57;7.40;;;14.20;65.20;;;;;;5080617;28;20032;-65
2023/04/09 12:25:35;;;;;;;9.77;6.95;;;14.60;64.40;;;;;;5084606;28;20028;-65
2023/04/09 12:28:05;;;;;;;13.57;7.72;;;14.00;64.00;;;;;;5087784;28;20032;-65
2023/04/09 12:30:32;;;;;;;9.70;7.47;;;13.60;65.80;;;;;;5088712;28;20048;-64
2023/04/09 12:32:58;;;;;;;11.35;7.93;;;14.00;65.50;;;;;;5076473;28;20039;-65
2023/04/09 12:35:24;;;;;;;9.80;7.13;;;14.20;65.20;;;;;;5091775;28;20134;-65
2023/04/09 12:37:50;;;;;;;9.82;7.15;;;14.20;66.30;;;;;;5081754;28;20327;-65
2023/04/09 12:40:16;;;;;;;9.75;7.38;;;14.80;66.10;;;;;;5082869;28;20024;-66